Time;durP1;ratioP1;P1;durP2;ratioP2;P2;SDS_P1;SDS_P2;PMS_P1;PMS_P2;Temp;Humidity;BMP_temperature;BMP_pressure;BME280_temperature;BME280_humidity;BME280_pressure;Samples;Min_cycle;Max_cycle;Signal;HPM_P1;HPM_P2
2022/04/24 00:01:33;;;;;;;;;;;;;;;;;;5066049;28;19950;-77
2022/04/24 00:04:00;;;;;;;;;;;;;;;;;;5065695;28;19932;-77
2022/04/24 00:06:27;;;;;;;;;;;;;;;;;;5066626;28;19925;-76
2022/04/24 00:08:55;;;;;;;;;;;;;;;;;;5053916;28;19932;-77
2022/04/24 00:11:23;;;;;;;;;;;;;;;;;;5064364;28;19925;-77
2022/04/24 00:13:50;;;;;;;;;;;;;;;;;;5062670;28;20591;-77
2022/04/24 00:16:17;;;;;;;;;;;;;;;;;;5064329;28;19933;-77
2022/04/24 00:18:44;;;;;;;;;;;;;;;;;;5059270;28;19924;-78
2022/04/24 00:21:11;;;;;;;;;;;;;;;;;;5063245;28;19935;-77
2022/04/24 00:23:38;;;;;;;;;;;;;;;;;;5059148;28;20384;-77
2022/04/24 00:26:05;;;;;;;;;;;;;;;;;;5061522;28;19932;-77
2022/04/24 00:28:32;;;;;;;;;;;;;;;;;;5067371;28;19947;-77
2022/04/24 00:30:59;;;;;;;;;;;;;;;;;;5062663;28;19929;-77
2022/04/24 00:33:26;;;;;;;;;;;;;;;;;;5062271;28;19924;-77
2022/04/24 00:35:53;;;;;;;;;;;;;;;;;;5061803;28;19925;-76
2022/04/24 00:38:20;;;;;;;;;;;;;;;;;;5063867;28;20147;-76
2022/04/24 00:40:47;;;;;;;;;;;;;;;;;;5066383;28;20028;-76
2022/04/24 00:43:14;;;;;;;;;;;;;;;;;;5100148;28;19931;-76
2022/04/24 00:45:41;;;;;;;;;;;;;;;;;;5063859;28;19933;-76
2022/04/24 00:48:08;;;;;;;;;;;;;;;;;;5064224;28;20401;-77
2022/04/24 00:50:46;;;;;;;;;;;;;;;;;;5094270;28;19931;-77
2022/04/24 00:53:13;;;;;;;;;;;;;;;;;;5068999;28;19950;-78
2022/04/24 00:55:40;;;;;;;;;;;;;;;;;;5064040;28;19924;-78
2022/04/24 00:58:07;;;;;;;;;;;;;;;;;;5068463;28;19925;-78
2022/04/24 01:00:34;;;;;;;;;;;;;;;;;;5064326;28;19925;-78
2022/04/24 01:03:01;;;;;;;;;;;;;;;;;;5066048;28;19980;-78
2022/04/24 01:05:28;;;;;;;;;;;;;;;;;;5067179;28;19924;-77
2022/04/24 01:07:55;;;;;;;;;;;;;;;;;;5099866;28;19928;-78
2022/04/24 01:10:22;;;;;;;;;;;;;;;;;;5070007;28;19924;-78
2022/04/24 01:12:49;;;;;;;;;;;;;;;;;;5067775;28;19924;-77
2022/04/24 01:15:19;;;;;;;;;;;;;;;;;;5065449;28;19931;-77
2022/04/24 01:17:46;;;;;;;;;;;;;;;;;;5068516;28;19924;-77
2022/04/24 01:20:14;;;;;;;;;;;;;;;;;;5068240;28;19924;-76
2022/04/24 01:22:41;;;;;;;;;;;;;;;;;;5096784;28;20538;-77
2022/04/24 01:25:12;;;;;;;;;;;;;;;;;;5065343;28;19936;-77
2022/04/24 01:27:41;;;;;;;;;;;;;;;;;;5068393;28;19928;-76
2022/04/24 01:30:08;;;;;;;;;;;;;;;;;;5096669;28;20398;-77
2022/04/24 01:32:38;;;;;;;;;;;;;;;;;;5067533;28;19943;-77
2022/04/24 01:35:05;;;;;;;;;;;;;;;;;;5065403;28;19939;-78
2022/04/24 01:37:32;;;;;;;;;;;;;;;;;;5065912;28;19924;-77
2022/04/24 01:39:59;;;;;;;;;;;;;;;;;;5068393;28;19924;-77
2022/04/24 01:42:26;;;;;;;;;;;;;;;;;;5068976;28;19924;-77
2022/04/24 01:44:53;;;;;;;;;;;;;;;;;;5068715;28;19931;-77
2022/04/24 01:47:20;;;;;;;;;;;;;;;;;;5066834;28;19924;-78
2022/04/24 01:49:47;;;;;;;;;;;;;;;;;;5067911;28;19931;-77
2022/04/24 01:52:14;;;;;;;;;;;;;;;;;;5092261;28;19932;-77
2022/04/24 01:54:41;;;;;;;;;;;;;;;;;;5069440;28;19935;-77
2022/04/24 01:57:08;;;;;;;;;;;;;;;;;;5099126;28;19924;-77
2022/04/24 01:59:35;;;;;;;;;;;;;;;;;;5068101;28;19936;-77
2022/04/24 02:02:02;;;;;;;;;;;;;;;;;;5068433;28;20024;-77
2022/04/24 02:04:30;;;;;;;;;;;;;;;;;;5067075;28;19924;-77
2022/04/24 02:06:57;;;;;;;;;;;;;;;;;;5064735;28;20292;-77
2022/04/24 02:09:24;;;;;;;;;;;;;;;;;;5068434;28;19938;-77
2022/04/24 02:11:51;;;;;;;;;;;;;;;;;;5068578;28;19951;-77
2022/04/24 02:14:21;;;;;;;;;;;;;;;;;;5065744;28;19924;-77
2022/04/24 02:16:51;;;;;;;;;;;;;;;;;;5093488;28;19932;-77
2022/04/24 02:19:18;;;;;;;;;;;;;;;;;;5056326;28;19924;-77
2022/04/24 02:21:45;;;;;;;;;;;;;;;;;;5097446;28;20303;-78
2022/04/24 02:24:12;;;;;;;;;;;;;;;;;;5069483;28;20306;-77
2022/04/24 02:26:39;;;;;;;;;;;;;;;;;;5066756;28;19925;-77
2022/04/24 02:29:07;;;;;;;;;;;;;;;;;;5065873;28;19939;-77
2022/04/24 02:31:37;;;;;;;;;;;;;;;;;;5063952;28;19924;-77
2022/04/24 02:34:04;;;;;;;;;;;;;;;;;;5067955;28;19932;-76
2022/04/24 02:36:31;;;;;;;;;;;;;;;;;;5068129;28;19924;-76
2022/04/24 02:38:58;;;;;;;;;;;;;;;;;;5063294;28;20323;-77
2022/04/24 02:41:25;;;;;;;;;;;;;;;;;;5065276;28;19930;-77
2022/04/24 02:43:52;;;;;;;;;;;;;;;;;;5065084;28;19939;-77
2022/04/24 02:46:19;;;;;;;;;;;;;;;;;;5064592;28;19925;-77
2022/04/24 02:48:46;;;;;;;;;;;;;;;;;;5063485;28;20324;-76
2022/04/24 02:51:13;;;;;;;;;;;;;;;;;;5058415;28;19925;-77
2022/04/24 02:53:42;;;;;;;;;;;;;;;;;;5064563;28;19928;-77
2022/04/24 02:56:09;;;;;;;;;;;;;;;;;;5096888;28;19925;-77
2022/04/24 02:58:38;;;;;;;;;;;;;;;;;;5063342;28;19943;-77
2022/04/24 03:01:05;;;;;;;;;;;;;;;;;;5064961;28;20220;-77
2022/04/24 03:03:32;;;;;;;;;;;;;;;;;;5065564;28;19929;-77
2022/04/24 03:05:59;;;;;;;;;;;;;;;;;;5064720;28;20391;-78
2022/04/24 03:08:27;;;;;;;;;;;;;;;;;;5059425;28;19932;-77
2022/04/24 03:10:54;;;;;;;;;;;;;;;;;;5067038;28;19956;-77
2022/04/24 03:13:21;;;;;;;;;;;;;;;;;;5066847;28;19931;-77
2022/04/24 03:15:48;;;;;;;;;;;;;;;;;;5063294;28;19932;-77
2022/04/24 03:18:15;;;;;;;;;;;;;;;;;;5063387;28;19924;-77
2022/04/24 03:20:42;;;;;;;;;;;;;;;;;;5064285;28;21638;-76
2022/04/24 03:23:09;;;;;;;;;;;;;;;;;;5067014;28;19932;-77
2022/04/24 03:25:36;;;;;;;;;;;;;;;;;;5068149;28;19978;-77
2022/04/24 03:28:03;;;;;;;;;;;;;;;;;;5066913;28;19932;-77
2022/04/24 03:30:30;;;;;;;;;;;;;;;;;;5065644;28;19946;-77
2022/04/24 03:32:57;;;;;;;;;;;;;;;;;;5064084;28;19935;-78
2022/04/24 03:35:24;;;;;;;;;;;;;;;;;;5066750;28;19925;-76
2022/04/24 03:37:51;;;;;;;;;;;;;;;;;;5065141;28;19936;-77
2022/04/24 03:40:19;;;;;;;;;;;;;;;;;;5066278;28;20310;-77
2022/04/24 03:42:47;;;;;;;;;;;;;;;;;;5098619;28;19924;-77
2022/04/24 03:45:14;;;;;;;;;;;;;;;;;;5097828;28;19925;-77
2022/04/24 03:47:41;;;;;;;;;;;;;;;;;;5064869;28;19925;-76
2022/04/24 03:50:08;;;;;;;;;;;;;;;;;;5065058;28;19978;-76
2022/04/24 03:52:37;;;;;;;;;;;;;;;;;;5064952;28;19924;-77
2022/04/24 03:55:04;;;;;;;;;;;;;;;;;;5098094;28;21853;-76
2022/04/24 03:57:31;;;;;;;;;;;;;;;;;;5064105;28;20387;-77
2022/04/24 03:59:58;;;;;;;;;;;;;;;;;;5069102;28;19950;-77
2022/04/24 04:02:25;;;;;;;;;;;;;;;;;;5068131;28;19924;-77
2022/04/24 04:04:52;;;;;;;;;;;;;;;;;;5063639;28;19928;-77
2022/04/24 04:07:20;;;;;;;;;;;;;;;;;;5063331;28;19928;-78
2022/04/24 04:09:48;;;;;;;;;;;;;;;;;;5066908;28;19924;-78
2022/04/24 04:12:14;;;;;;;;;;;;;;;;;;5065960;28;20363;-77
2022/04/24 04:14:41;;;;;;;;;;;;;;;;;;5063205;28;19939;-77
2022/04/24 04:17:09;;;;;;;;;;;;;;;;;;5088815;28;20232;-78
2022/04/24 04:19:36;;;;;;;;;;;;;;;;;;5067732;28;19929;-77
2022/04/24 04:22:03;;;;;;;;;;;;;;;;;;5072303;28;19932;-78
2022/04/24 04:24:30;;;;;;;;;;;;;;;;;;5068984;28;19925;-77
2022/04/24 04:26:57;;;;;;;;;;;;;;;;;;5070524;28;19931;-78
2022/04/24 04:29:24;;;;;;;;;;;;;;;;;;5070591;28;19931;-78
2022/04/24 04:31:51;;;;;;;;;;;;;;;;;;5068306;28;19934;-77
2022/04/24 04:34:18;;;;;;;;;;;;;;;;;;5076461;28;20548;-78
2022/04/24 04:36:45;;;;;;;;;;;;;;;;;;5071035;28;20125;-78
2022/04/24 04:39:12;;;;;;;;;;;9.80;99.90;;;;;;5071093;28;19934;-78
2022/04/24 04:41:40;;;;;;;;;;;9.80;99.90;;;;;;5071739;28;19938;-78
2022/04/24 04:44:06;;;;;;;;;;;9.60;99.90;;;;;;5070398;28;20166;-76
2022/04/24 04:46:33;;;;;;;;;;;9.50;99.90;;;;;;5054666;28;19925;-78
2022/04/24 04:48:59;;;;;;;;;;;9.30;99.90;;;;;;5058878;28;19931;-77
2022/04/24 04:51:26;;;;;;;;;;;9.10;99.90;;;;;;5102074;28;20280;-77
2022/04/24 04:53:55;;;;;;;;;;;9.00;99.90;;;;;;5070266;28;20124;-78
2022/04/24 04:56:22;;;;;;;;;;;8.90;99.90;;;;;;5064534;28;19936;-78
2022/04/24 04:58:49;;;;;;;;;;;8.90;99.90;;;;;;5063709;28;20321;-78
2022/04/24 05:01:16;;;;;;;;;;;8.80;99.90;;;;;;5068070;28;19961;-78
2022/04/24 05:03:43;;;;;;;;;;;8.70;99.90;;;;;;5066316;28;19932;-77
2022/04/24 05:06:10;;;;;;;;;;;8.70;99.90;;;;;;5065828;28;20385;-78
2022/04/24 05:08:36;;;;;;;;;;;8.80;99.90;;;;;;5062940;28;19924;-77
2022/04/24 05:11:06;;;;;;;;;;;8.80;99.90;;;;;;5065418;28;19929;-78
2022/04/24 05:13:33;;;;;;;;;;;8.80;99.90;;;;;;5093510;28;20290;-78
2022/04/24 05:15:59;;;;;;;;;;;8.90;99.90;;;;;;5066234;28;19928;-78
2022/04/24 05:18:26;;;;;;;;;;;9.10;99.90;;;;;;5056822;28;20240;-77
2022/04/24 05:20:53;;;;;;;;;;;9.20;99.90;;;;;;5060117;28;19932;-78
2022/04/24 05:23:19;;;;;;;;;;;9.30;99.90;;;;;;5065905;28;19924;-78
2022/04/24 05:25:48;;;;;;;;;;;9.40;99.90;;;;;;5067454;28;19925;-78
2022/04/24 05:28:15;;;;;;;;;;;9.60;99.90;;;;;;5096861;28;19924;-78
2022/04/24 05:30:41;;;;;;;;;;;9.70;99.90;;;;;;5065673;28;19967;-77
2022/04/24 05:33:08;;;;;;;;;;;9.90;99.90;;;;;;5067937;28;19924;-77
2022/04/24 05:35:36;;;;;;;;;;;9.90;99.90;;;;;;5063278;28;19932;-78
2022/04/24 05:38:03;;;;;;;;;;;10.00;99.90;;;;;;5054241;28;19933;-78
2022/04/24 05:40:29;;;;;;;;;;;10.00;99.90;;;;;;5062119;28;19924;-78
2022/04/24 05:42:56;;;;;;;;;;;10.00;99.90;;;;;;5070396;28;19935;-78
2022/04/24 05:45:24;;;;;;;;;;;10.10;99.90;;;;;;5068914;28;20298;-77
2022/04/24 05:47:54;;;;;;;;;;;10.20;99.90;;;;;;5065008;28;19932;-78
2022/04/24 05:50:23;;;;;;;;;;;10.30;99.90;;;;;;5060858;28;19932;-78
2022/04/24 05:52:49;;;;;;;;;;;10.50;99.90;;;;;;5067127;28;19935;-78
2022/04/24 05:55:16;;;;;;;;;;;10.60;99.90;;;;;;5061196;28;20322;-78
2022/04/24 05:57:42;;;;;;;;;;;10.70;99.90;;;;;;5064671;28;19931;-78
2022/04/24 06:00:09;;;;;;;;;;;10.90;99.90;;;;;;5063290;28;19949;-78
2022/04/24 06:02:36;;;;;;;;;;;11.00;99.90;;;;;;5062894;28;19935;-78
2022/04/24 06:05:04;;;;;;;;;;;11.20;99.90;;;;;;5062488;28;19978;-78
2022/04/24 06:07:30;;;;;;;;;;;11.40;99.90;;;;;;5064744;28;19925;-78
2022/04/24 06:09:57;;;;;;;;;;;11.50;99.90;;;;;;5063969;28;19924;-78
2022/04/24 06:12:24;;;;;;;;;;;11.70;99.90;;;;;;5067168;28;19936;-78
2022/04/24 06:14:50;;;;;;;;;;;11.80;99.90;;;;;;5059859;28;19929;-78
2022/04/24 06:17:17;;;;;;;;;;;12.00;99.90;;;;;;5058776;28;19931;-77
2022/04/24 06:19:43;;;;;;;;;;;11.80;99.90;;;;;;5060585;28;19932;-78
2022/04/24 06:22:10;;;;;;;;;;;11.70;99.90;;;;;;5065602;28;20038;-78
2022/04/24 06:24:37;;;;;;;;;;;11.70;99.90;;;;;;5060131;28;19928;-76
2022/04/24 06:27:04;;;;;;;;;;;11.60;99.90;;;;;;5057968;28;19971;-77
2022/04/24 06:29:31;;;;;;;;;;;11.70;99.90;;;;;;5062049;28;19943;-77
2022/04/24 06:31:58;;;;;;;;;;;11.70;99.90;;;;;;5062176;28;20379;-77
2022/04/24 06:34:25;;;;;;;;;;;11.70;99.90;;;;;;5074826;28;19936;-78
2022/04/24 06:36:52;;;;;;;;;;;11.70;99.90;;;;;;5057328;28;19959;-77
2022/04/24 06:39:18;;;;;;;;;;;11.60;99.90;;;;;;5088757;28;19935;-77
2022/04/24 06:41:45;;;;;;;;;;;11.50;99.90;;;;;;5051031;28;19997;-77
2022/04/24 06:44:13;;;;;;;;;;;11.40;99.90;;;;;;5065779;28;19924;-77
2022/04/24 06:46:39;;;;;;;;;;;11.50;99.90;;;;;;5061854;28;20363;-78
2022/04/24 06:49:06;;;;;;;;;;;11.60;99.90;;;;;;5059336;28;19964;-78
2022/04/24 06:51:33;;;;;;;;;;;11.70;99.90;;;;;;5065191;28;19924;-77
2022/04/24 06:53:59;;;;;;;;;;;11.80;99.90;;;;;;5066082;28;19932;-78
2022/04/24 06:56:26;;;;;;;;;;;12.10;99.90;;;;;;5068227;28;19924;-78
2022/04/24 06:58:53;;;;;;;;;;;12.30;99.90;;;;;;5064039;28;19939;-77
2022/04/24 07:01:21;;;;;;;;;;;12.40;99.90;;;;;;5054347;28;20964;-78
2022/04/24 07:03:48;;;;;;;;;;;12.70;99.90;;;;;;5062766;28;19928;-78
2022/04/24 07:06:21;;;;;;;;;;;13.00;99.90;;;;;;5056161;28;20200;-78
2022/04/24 07:08:49;;;;;;;;;;;13.10;99.90;;;;;;5059539;28;19954;-78
2022/04/24 07:11:16;;;;;;;;;;;13.10;99.90;;;;;;5059944;28;19930;-78
2022/04/24 07:13:44;;;;;;;;;;;13.10;99.90;;;;;;5063116;28;19933;-78
2022/04/24 07:16:10;;;;;;;;;;;13.20;99.90;;;;;;5062086;28;19925;-78
2022/04/24 07:18:37;;;;;;;;;;;13.10;99.90;;;;;;5058228;28;19924;-77
2022/04/24 07:21:06;;;;;;;;;;;13.10;99.90;;;;;;5060705;28;19932;-77
2022/04/24 07:23:32;;;;;;;;;;;13.10;99.90;;;;;;5061442;28;20303;-78
2022/04/24 07:25:59;;;;;;;;;;;13.00;99.90;;;;;;5059961;28;19932;-79
2022/04/24 07:28:26;;;;;;;;;;;13.00;99.90;;;;;;5058960;28;19932;-78
2022/04/24 07:30:52;;;;;;;;;;;13.10;99.90;;;;;;5065279;28;20019;-78
2022/04/24 07:33:19;;;;;;;;;;;13.20;99.90;;;;;;5068212;28;19925;-78
2022/04/24 07:35:46;;;;;;;;;;;13.10;99.90;;;;;;5064599;28;19933;-78
2022/04/24 07:38:13;;;;;;;;;;;12.90;99.90;;;;;;5065521;28;19970;-77
2022/04/24 07:40:40;;;;;;;;;;;12.80;99.90;;;;;;5068597;28;19935;-78
2022/04/24 07:43:08;;;;;;;;;;;12.90;99.90;;;;;;5064794;28;19954;-77
2022/04/24 07:45:36;;;;;;;;;;;12.90;99.90;;;;;;5073950;28;20362;-78
2022/04/24 07:48:04;;;;;;;;;;;12.80;99.90;;;;;;5068068;28;19995;-79
2022/04/24 07:50:33;;;;;;;;;;;12.60;99.90;;;;;;5063285;28;20034;-78
2022/04/24 07:53:00;;;;;;;;;;;12.60;99.90;;;;;;5066214;28;19931;-78
2022/04/24 07:55:26;;;;;;;;;;;12.50;99.90;;;;;;5066235;28;19924;-78
2022/04/24 07:57:54;;;;;;;;;;;12.50;99.90;;;;;;5066717;28;20220;-78
2022/04/24 08:00:22;;;;;;;;;;;12.40;99.90;;;;;;5067689;28;19929;-78
2022/04/24 08:02:51;;;;;;;;;;;12.30;99.90;;;;;;5070339;28;19928;-77
2022/04/24 08:05:18;;;;;;;;;;;12.20;99.90;;;;;;5067054;28;19971;-77
2022/04/24 08:07:45;;;;;;;;;;;12.20;99.90;;;;;;5062002;28;19931;-77
2022/04/24 08:10:13;;;;;;;;;;;12.20;99.90;;;;;;5064177;28;20431;-78
2022/04/24 08:12:39;;;;;;;;;;;12.20;99.90;;;;;;5071902;28;20007;-77
2022/04/24 08:15:06;;;;;;;;;;;12.30;99.90;;;;;;5071676;28;19931;-78
2022/04/24 08:17:33;;;;;;;;;;;12.40;99.90;;;;;;5070530;28;19928;-78
2022/04/24 08:19:59;;;;;;;;;;;12.40;99.90;;;;;;5071247;28;19931;-78
2022/04/24 08:22:36;;;;;;;;;;;12.50;99.90;;;;;;5066508;28;19924;-79
2022/04/24 08:25:04;;;;;;;;;;;12.50;99.90;;;;;;5064059;28;19924;-79
2022/04/24 08:27:31;;;;;;;;;;;12.60;99.90;;;;;;5066512;28;20011;-75
2022/04/24 08:29:58;;;;;;;;;;;12.60;99.90;;;;;;5070452;28;19940;-75
2022/04/24 08:32:25;;;;;;;;;;;12.70;99.90;;;;;;5069858;28;19928;-75
2022/04/24 08:34:51;;;;;;;;;;;12.80;99.90;;;;;;5070245;28;19924;-75
2022/04/24 08:37:18;;;;;;;;;;;12.90;99.90;;;;;;5063063;28;19925;-75
2022/04/24 08:39:44;;;;;;;;;;;12.90;99.90;;;;;;5065812;28;19971;-75
2022/04/24 08:42:11;;;;;;;;;;;12.90;99.90;;;;;;5070735;28;19925;-75
2022/04/24 08:44:40;;;;;;;;;;;13.00;99.90;;;;;;5067050;28;20357;-76
2022/04/24 08:47:08;;;;;;;;;;;13.30;99.90;;;;;;5066366;28;19967;-75
2022/04/24 08:49:34;;;;;;;;;;;13.70;99.90;;;;;;5072621;28;20646;-75
2022/04/24 08:52:01;;;;;;;;;;;14.10;99.90;;;;;;5070772;28;19924;-75
2022/04/24 08:54:28;;;;;;;;;;;14.50;99.90;;;;;;5066414;28;19924;-75
2022/04/24 08:56:56;;;;;;;;;;;15.00;99.90;;;;;;5065219;28;19944;-73
2022/04/24 08:59:23;;;;;;;;;;;15.50;99.90;;;;;;5067892;28;20287;-74
2022/04/24 09:01:51;;;;;;;;;;;15.60;99.90;;;;;;5067899;28;19931;-75
2022/04/24 09:04:19;;;;;;;;;;;15.80;99.90;;;;;;5065248;28;19928;-75
2022/04/24 09:06:59;;;;;;;;;;;16.30;99.90;;;;;;5059104;28;19932;-75
2022/04/24 09:09:26;;;;;;;;;;;16.70;99.90;;;;;;5065451;28;19932;-74
2022/04/24 09:12:05;;;;;;;;;;;17.10;99.90;;;;;;5069843;28;20096;-74
2022/04/24 09:14:32;;;;;;;;;;;17.40;99.90;;;;;;5069990;28;20421;-74
2022/04/24 09:17:04;;;;;;;;;;;17.60;99.90;;;;;;5068406;28;19990;-76
2022/04/24 09:19:31;;;;;;;;;;;17.70;99.90;;;;;;5071238;28;19938;-74
2022/04/24 09:22:01;;;;;;;;;;;17.40;99.90;;;;;;5067525;28;19931;-74
2022/04/24 09:24:39;;;;;;;;;;;17.40;99.90;;;;;;5061732;28;20414;-73
2022/04/24 09:27:06;;;;;;;;;;;17.40;99.90;;;;;;5065584;28;19950;-74
2022/04/24 09:29:33;;;;;;;;;;;17.40;99.90;;;;;;5063805;28;20334;-75
2022/04/24 09:32:00;;;;;;;;;;;17.60;99.90;;;;;;5068066;28;20457;-75
2022/04/24 09:34:33;;;;;;;;;;;18.60;99.90;;;;;;5070305;28;19946;-74
2022/04/24 09:37:04;;;;;;;;;;;19.30;99.90;;;;;;5069902;28;19924;-74
2022/04/24 09:39:32;;;;;;;;;;;20.10;99.50;;;;;;5068353;28;19925;-74
2022/04/24 09:42:06;;;;;;;;;;;20.30;98.70;;;;;;5056839;28;19939;-75
2022/04/24 09:44:59;;;;;;;;;;;20.50;98.30;;;;;;5067221;28;19950;-75
2022/04/24 09:47:45;;;;;;;;;;;20.70;97.70;;;;;;5063938;28;19978;-75
2022/04/24 09:50:13;;;;;;;;;;;19.40;98.30;;;;;;5064759;28;20300;-75
2022/04/24 09:52:45;;;;;;;;;;;19.10;98.80;;;;;;5057790;28;19928;-74
2022/04/24 09:55:13;;;;;;;;;;;19.00;98.90;;;;;;5063790;28;19924;-74
2022/04/24 09:57:40;;;;;;;;;;;18.70;99.20;;;;;;5061244;28;19928;-75
2022/04/24 10:00:07;;;;;;;;;;;18.10;99.30;;;;;;5064518;28;20283;-75
2022/04/24 10:02:34;;;;;;;;;;;17.60;99.80;;;;;;5062645;28;19956;-73
2022/04/24 10:05:02;;;;;;;;;;;17.30;99.90;;;;;;5065993;28;20458;-75
2022/04/24 10:07:29;;;;;;;;;;;16.90;99.90;;;;;;5057599;28;20082;-74
2022/04/24 10:09:57;;;;;;;;;;;16.50;99.90;;;;;;5057306;28;19925;-74
2022/04/24 10:12:24;;;;;;;;;;;16.30;99.90;;;;;;5061299;28;20164;-74
2022/04/24 10:14:53;;;;;;;;;;;16.20;99.90;;;;;;5063707;28;19929;-74
2022/04/24 10:17:29;;;;;;;;;;;16.40;99.90;;;;;;5061658;28;20019;-74
2022/04/24 10:20:15;;;;;;;;;;;16.30;99.90;;;;;;5059013;28;19928;-75
2022/04/24 10:22:44;;;;;;;;;;;16.50;99.90;;;;;;5063448;28;19931;-74
2022/04/24 10:25:13;;;;;;;;;;;16.40;99.90;;;;;;5061729;28;20022;-74
2022/04/24 10:27:40;;;;;;;;;;;16.50;99.90;;;;;;5063216;28;19924;-74
2022/04/24 10:30:10;;;;;;;;;;;16.40;99.90;;;;;;5066653;28;19924;-75
2022/04/24 10:32:37;;;;;;;;;;;16.30;99.90;;;;;;5060708;28;19940;-74
2022/04/24 10:35:13;;;;;;;;;;;16.70;99.90;;;;;;5055252;28;19936;-75
2022/04/24 10:37:43;;;;;;;;;;;16.90;99.90;;;;;;5094306;28;20228;-75
2022/04/24 10:40:14;;;;;;;;;;;17.20;99.90;;;;;;5066716;28;19929;-75
2022/04/24 10:42:42;;;;;;;;;;;17.60;99.90;;;;;;5065127;28;19943;-75
2022/04/24 10:45:12;;;;;;;;;;;17.90;99.90;;;;;;5064749;28;19928;-75
2022/04/24 10:48:03;;;;;;;;;;;18.20;99.90;;;;;;5058836;28;19932;-75
2022/04/24 10:50:30;;;;;;;;;;;18.00;99.90;;;;;;5062274;28;20011;-75
2022/04/24 10:52:57;;;;;;;;;;;17.60;99.90;;;;;;5057308;28;19929;-73
2022/04/24 10:55:29;;;;;;;;;;;17.30;99.90;;;;;;5055766;28;19929;-73
2022/04/24 10:58:00;;;;;;;;;;;17.00;99.90;;;;;;5095667;28;20371;-75
2022/04/24 11:00:31;;;;;;;;;;;16.70;99.90;;;;;;5097296;28;20468;-74
2022/04/24 11:03:08;;;;;;;;;;;16.40;99.90;;;;;;5061719;28;20190;-75
2022/04/24 11:05:36;;;;;;;;;;;16.20;99.90;;;;;;5061664;28;19924;-74
2022/04/24 11:08:04;;;;;;;;;;;16.10;99.90;;;;;;5055340;28;19932;-74
2022/04/24 11:10:37;;;;;;;;;;;16.00;99.90;;;;;;5063853;28;19932;-75
2022/04/24 11:13:04;;;;;;;;;;;15.80;99.90;;;;;;5063888;28;19929;-74
2022/04/24 11:15:31;;;;;;;;;;;15.60;99.90;;;;;;5065518;28;19924;-74
2022/04/24 11:17:57;;;;;;;;;;;15.50;99.90;;;;;;5064316;28;20022;-73
2022/04/24 11:20:31;;;;;;;;;;;15.50;99.90;;;;;;5060038;28;20023;-75
2022/04/24 11:22:58;;;;;;;;;;;15.30;99.90;;;;;;5061327;28;20059;-75
2022/04/24 11:25:28;;;;;;;;;;;15.20;99.90;;;;;;5064186;28;19938;-75
2022/04/24 11:27:59;;;;;;;;;;;15.10;99.90;;;;;;5065259;28;19986;-75
2022/04/24 11:30:33;;;;;;;;;;;15.10;99.90;;;;;;5058421;28;20011;-75
2022/04/24 11:33:07;;;;;;;;;;;15.10;99.90;;;;;;5058930;28;19929;-75
2022/04/24 11:35:37;;;;;;;;;;;15.10;99.90;;;;;;5057997;28;19925;-73
2022/04/24 11:38:13;;;;;;;;;;;15.10;99.90;;;;;;5063370;28;19931;-74
2022/04/24 11:40:46;;;;;;;;;;;15.10;99.90;;;;;;5061689;28;19983;-74
2022/04/24 11:43:16;;;;;;;;;;;15.10;99.90;;;;;;5061530;28;19994;-75
2022/04/24 11:51:29;;;;;;;;;;;15.40;99.90;;;;;;5058363;28;19924;-75
2022/04/24 11:54:10;;;;;;;;;;;15.60;99.90;;;;;;5064138;28;19932;-75
2022/04/24 11:56:37;;;;;;;;;;;15.80;99.90;;;;;;5061302;28;20314;-75
2022/04/24 11:59:35;;;;;;;;;;;15.90;99.90;;;;;;5061795;28;19974;-75
2022/04/24 12:02:01;;;;;;;;;;;16.00;99.90;;;;;;5020557;28;20145;-75
2022/04/24 12:04:31;;;;;;;;;;;15.80;99.90;;;;;;5020727;28;20420;-74
2022/04/24 12:07:05;;;;;;;;;;;15.60;99.90;;;;;;5029345;28;20711;-74
2022/04/24 12:09:32;;;;;;;;;;;15.60;99.90;;;;;;5024588;28;20343;-74
2022/04/24 12:12:07;;;;;;;;;;;15.60;99.90;;;;;;5023314;28;19929;-74
2022/04/24 12:14:35;;;;;;;;;;;15.50;99.90;;;;;;5019747;28;19925;-74
2022/04/24 12:17:06;;;;;;;;;;;15.60;99.90;;;;;;5025974;28;19939;-74
2022/04/24 12:19:36;;;;;;;;;;;15.90;99.90;;;;;;5016981;28;20340;-75
2022/04/24 12:22:07;;;;;;;;;;;15.90;99.90;;;;;;5022869;28;20016;-74
2022/04/24 12:24:41;;;;;;;;;;;16.30;99.90;;;;;;5035059;28;19926;-73
2022/04/24 12:27:09;;;;;;;;;;;16.30;99.90;;;;;;5010164;28;19991;-74
2022/04/24 12:29:57;;;;;;;;;;;16.30;99.70;;;;;;5019353;28;19933;-74
2022/04/24 12:32:27;;;;;;;;;;;16.40;99.90;;;;;;5021511;28;19976;-75
2022/04/24 12:34:56;;;;;;;;;;;16.70;99.70;;;;;;5019500;28;19960;-75
2022/04/24 12:37:30;;;;;;;;;;;16.90;99.90;;;;;;5019911;28;19947;-74
2022/04/24 12:39:57;;;;;;;;;;;16.90;99.40;;;;;;5060867;28;20429;-75
2022/04/24 12:42:25;;;;;;;;;;;16.90;99.50;;;;;;5059933;28;19925;-75
2022/04/24 12:44:52;;;;;;;;;;;16.90;99.40;;;;;;5057849;28;19932;-75
2022/04/24 12:47:20;;;;;;;;;;;17.00;99.60;;;;;;5060358;28;20036;-73
2022/04/24 12:49:49;;;;;;;;;;;17.30;99.40;;;;;;5057585;28;19928;-73
2022/04/24 12:52:20;;;;;;;;;;;17.50;99.20;;;;;;5066336;28;20011;-74
2022/04/24 12:54:47;;;;;;;;;;;17.40;99.00;;;;;;5064946;28;19931;-74
2022/04/24 12:57:14;;;;;;;;;;;17.50;99.00;;;;;;5068553;28;19924;-74
2022/04/24 12:59:41;;;;;;;;;;;17.60;98.90;;;;;;5065569;28;19943;-74
2022/04/24 13:02:09;;;;;;;;;;;17.60;98.80;;;;;;5065017;28;19925;-73
2022/04/24 13:04:37;;;;;;;;;;;17.70;99.10;;;;;;5069651;28;19931;-74
2022/04/24 13:07:04;;;;;;;;;;;17.90;98.80;;;;;;5064467;28;19931;-75
2022/04/24 13:09:31;;;;;;;;;;;17.90;98.90;;;;;;5073959;28;19925;-74
2022/04/24 13:11:58;;;;;;;;;;;18.30;98.70;;;;;;5061955;28;19932;-74
2022/04/24 13:14:24;;;;;;;;;;;18.30;98.10;;;;;;5067755;28;19932;-74
2022/04/24 13:19:41;;;;;;;;;;;19.00;98.10;;;;;;5064096;28;19924;-74
2022/04/24 13:22:07;;;;;;;;;;;19.20;97.40;;;;;;5068336;28;20023;-74
2022/04/24 13:24:34;;;;;;;;;;;18.90;97.40;;;;;;5065674;28;20003;-74
2022/04/24 13:27:01;;;;;;;;;;;18.50;97.50;;;;;;5067660;28;19924;-73
2022/04/24 13:29:29;;;;;;;;;;;17.90;98.00;;;;;;5066130;28;19967;-72
2022/04/24 13:31:57;;;;;;;;;;;17.50;98.40;;;;;;5064191;28;20003;-74
2022/04/24 13:34:24;;;;;;;;;;;17.20;98.70;;;;;;5076378;28;19924;-73
2022/04/24 13:39:42;;;;;;;;;;;16.60;99.30;;;;;;5066659;28;19925;-74
2022/04/24 13:42:10;;;;;;;;;;;16.20;99.70;;;;;;5061261;28;19925;-74
2022/04/24 13:44:36;;;;;;;;;;;16.10;99.90;;;;;;5061347;28;19928;-74
2022/04/24 13:47:06;;;;;;;;;;;16.00;99.90;;;;;;5058580;28;19939;-74
2022/04/24 13:49:33;;;;;;;;;;;16.00;99.90;;;;;;5066193;28;19931;-73
2022/04/24 13:52:01;;;;;;;;;;;15.90;99.90;;;;;;5063940;28;20015;-74
2022/04/24 13:54:28;;;;;;;;;;;15.70;99.90;;;;;;5065878;28;20016;-74
2022/04/24 13:56:56;;;;;;;;;;;15.50;99.90;;;;;;5064005;28;19935;-74
2022/04/24 13:59:24;;;;;;;;;;;15.30;99.90;;;;;;5057032;28;19936;-75
2022/04/24 14:01:51;;;;;;;;;;;15.30;99.90;;;;;;5063286;28;20011;-75
2022/04/24 14:04:19;;;;;;;;;;;15.30;99.90;;;;;;5058031;28;20552;-75
2022/04/24 14:06:46;;;;;;;;;;;15.30;99.90;;;;;;5058342;28;19993;-75
2022/04/24 14:09:12;;;;;;;;;;;15.30;99.90;;;;;;5064412;28;19924;-75
2022/04/24 14:11:39;;;;;;;;;;;15.30;99.90;;;;;;5063734;28;20375;-76
2022/04/24 14:14:06;;;;;;;;;;;15.30;99.90;;;;;;5059055;28;20137;-75
2022/04/24 14:16:33;;;;;;;;;;;15.30;99.90;;;;;;5062197;28;20019;-75
2022/04/24 14:19:00;;;;;;;;;;;15.30;99.90;;;;;;5064665;28;19924;-76
2022/04/24 14:21:26;;;;;;;;;;;15.30;99.90;;;;;;5063830;28;19948;-75
2022/04/24 14:23:53;;;;;;;;;;;15.20;99.90;;;;;;5056409;28;20015;-75
2022/04/24 14:26:20;;;;;;;;;;;15.20;99.90;;;;;;5065435;28;19975;-76
2022/04/24 14:28:47;;;;;;;;;;;15.10;99.90;;;;;;5061985;28;19928;-75
2022/04/24 14:31:13;;;;;;;;;;;15.00;99.90;;;;;;5064571;28;20062;-76
2022/04/24 14:33:41;;;;;;;;;;;15.00;99.90;;;;;;5064554;28;19932;-76
2022/04/24 14:36:09;;;;;;;;;;;14.80;99.90;;;;;;5097770;28;19932;-76
2022/04/24 14:38:36;;;;;;;;;;;14.80;99.90;;;;;;5061632;28;19982;-76
2022/04/24 14:41:03;;;;;;;;;;;14.70;99.90;;;;;;5064036;28;19932;-75
2022/04/24 14:43:31;;;;;;;;;;;14.70;99.90;;;;;;5062503;28;19951;-76
2022/04/24 14:57:02;;;;;;;;;;;14.40;99.90;;;;;;5061270;28;20387;-76
2022/04/24 14:59:31;;;;;;;;;;;14.40;99.90;;;;;;5057828;28;19924;-75
2022/04/24 15:01:58;;;;;;;;;;;14.40;99.90;;;;;;5062873;28;19978;-75
2022/04/24 15:04:26;;;;;;;;;;;14.30;99.90;;;;;;5061501;28;19990;-75
2022/04/24 15:06:53;;;;;;;;;;;14.30;99.90;;;;;;5059783;28;19925;-75
2022/04/24 15:09:19;;;;;;;;;;;14.30;99.90;;;;;;5060847;28;20374;-76
2022/04/24 15:11:46;;;;;;;;;;;14.30;99.90;;;;;;5061057;28;19951;-78
2022/04/24 15:14:20;;;;;;;;;;;14.30;99.90;;;;;;5064609;28;20439;-78
2022/04/24 15:16:47;;;;;;;;;;;14.30;99.90;;;;;;5065922;28;19925;-78
2022/04/24 15:19:16;;;;;;;;;;;14.30;99.90;;;;;;5063879;28;19929;-79
2022/04/24 15:21:43;;;;;;;;;;;14.30;99.90;;;;;;5059450;28;21245;-78
2022/04/24 15:24:19;;;;;;;;;;;14.20;99.90;;;;;;5060355;28;20439;-78
2022/04/24 15:26:48;;;;;;;;;;;14.10;99.90;;;;;;5056972;28;19964;-78